Página principal
METAR-TAF:

METAR-TAF

Aeroportos :

Navoiy, Uzbequistão

latitude: 40-07-04N, longitude: 065-10-30E, altura: 348 m

Observação actual do tempo

O boletim foi feito há 26 minutos, às 18:30 UTC
Vento 8 kt de su-sudoeste
Temperatura 4°C
Humidade 75%
Pressão 1022 hPa
Visibilidade 10 km ou mais

METAR: UTSA 231830Z 20008KT 9999 NSC 04/M00 Q1022 R25/CLRD70 NOSIG

Hora: 23:56 (18:56 UTC)

Previsão

O boletim foi feito há 1 hora e 55 minutos, às 17:01 UTC
Previsão válida de 23 às 18 UTC a 24 às 18 UTC
Vento 3 kt com direcção variável
Visibilidade: 6000 m
Poucas nuvensa uma altura de 3300 ft
Temporariamente
de 23 às 18 UTC a 23 às 23 UTC
Vento 10 kt de sul
Visibilidade: 3000 m
Nuvens dispersasa uma altura de 2000 ft
neblina, fumo
Temporariamente
de 23 às 23 UTC a 24 às 05 UTC
Vento 8 kt de su-sudoeste
Visibilidade: 0500 m
a uma altura de 200 ft
nevoeiro

TAF: UTSA 231701Z 2318/2418 VRB03KT 6000 FEW033 TEMPO 2318/2323 19010KT 3000 BR FU SCT020 TEMPO 2323/2405 21008KT 0500 FG VV002

Observações e previsões do tempo de mais de 4000 aeroportos (mensagens METAR e TAF).

As estações disponíveis são os pontos amarelos e vermelhos sobre o mapa.

Mova o rato sobre o mapa para ver o nome da estação.

Depois clique no ponto para visualizar as observações e previsões meteorológicas.

Para alterar o mapa : clique nos botões verdes com uma cruz preta para aumentar o zoom; no botão verde com uma pitada de zoom; ou nas setas verdes para mapas adjacentes.


METAR-TAF: